createdAt,value
2022-10-17T00:00:24.188Z,89.22
2022-10-17T00:01:24.229Z,89.11
2022-10-17T00:02:24.062Z,89.22
2022-10-17T00:03:24.083Z,89.22
2022-10-17T00:04:24.081Z,89.22
2022-10-17T00:05:24.317Z,89.22
2022-10-17T00:06:24.032Z,89.22
2022-10-17T00:07:24.022Z,89.22
2022-10-17T00:08:23.988Z,89.22
2022-10-17T00:09:23.978Z,89.22
2022-10-17T00:10:23.956Z,89.22
2022-10-17T00:11:23.986Z,89.11
2022-10-17T00:12:23.970Z,89.31
2022-10-17T00:13:23.957Z,89.22
2022-10-17T00:14:23.892Z,89.42
2022-10-17T00:15:23.923Z,89.31
2022-10-17T00:16:23.851Z,89.22
2022-10-17T00:17:23.875Z,89.22
2022-10-17T00:18:23.852Z,89.22
2022-10-17T00:19:23.850Z,89.11
2022-10-17T00:20:23.800Z,89.11
2022-10-17T00:21:23.808Z,89.11
2022-10-17T00:22:23.896Z,89.07
2022-10-17T00:23:23.772Z,89.11
2022-10-17T00:24:23.755Z,89.07
2022-10-17T00:25:23.754Z,89.28
2022-10-17T00:26:23.762Z,89.37
2022-10-17T00:27:23.716Z,89.78
2022-10-17T00:28:23.800Z,89.62
2022-10-17T00:29:23.708Z,89.83
2022-10-17T00:30:23.673Z,89.83
2022-10-17T00:31:23.735Z,89.92
2022-10-17T00:32:23.700Z,90.13
2022-10-17T00:33:23.659Z,90.13
2022-10-17T00:34:23.650Z,90.03
2022-10-17T00:35:23.613Z,90.13
2022-10-17T00:36:23.616Z,90.23
2022-10-17T00:37:23.676Z,90.33
2022-10-17T00:38:23.578Z,90.33
2022-10-17T00:39:23.573Z,90.33
2022-10-17T00:40:23.536Z,90.33
2022-10-17T00:41:23.585Z,90.33
2022-10-17T00:42:23.524Z,90.44
2022-10-17T00:43:23.505Z,90.44
2022-10-17T00:44:23.501Z,90.33
2022-10-17T00:45:23.538Z,90.44
2022-10-17T00:46:23.496Z,90.64
2022-10-17T00:47:23.496Z,90.64
2022-10-17T00:48:23.501Z,90.64
2022-10-17T00:49:23.460Z,90.44
2022-10-17T00:50:23.523Z,90.53
2022-10-17T00:51:23.436Z,90.64
2022-10-17T00:52:23.455Z,90.64
2022-10-17T00:53:23.402Z,90.53
2022-10-17T00:54:23.361Z,90.64
2022-10-17T00:55:23.381Z,90.74
2022-10-17T00:56:23.359Z,90.74
2022-10-17T00:57:23.384Z,90.74
2022-10-17T00:58:23.318Z,90.74
2022-10-17T00:59:23.340Z,90.74
2022-10-17T01:00:23.282Z,90.74
2022-10-17T01:01:23.368Z,90.84
2022-10-17T01:02:23.265Z,90.94
2022-10-17T01:03:23.279Z,90.84
2022-10-17T01:04:23.252Z,90.84
2022-10-17T01:05:23.244Z,90.80
2022-10-17T01:06:23.216Z,90.80
2022-10-17T01:07:23.215Z,90.74
2022-10-17T01:08:23.184Z,90.84
2022-10-17T01:09:23.163Z,90.80
2022-10-17T01:11:23.134Z,90.94
2022-10-17T01:12:23.169Z,90.94
2022-10-17T01:13:23.189Z,90.94
2022-10-17T01:14:23.133Z,90.94
2022-10-17T01:15:23.101Z,91.14
2022-10-17T01:16:23.110Z,91.25
2022-10-17T01:17:23.223Z,91.45
2022-10-17T01:18:23.062Z,91.55
2022-10-17T01:20:23.013Z,91.75
2022-10-17T01:21:23.060Z,91.86
2022-10-17T01:22:22.990Z,92.06
2022-10-17T01:23:23.010Z,92.16
2022-10-17T01:24:22.990Z,92.26
2022-10-17T01:25:23.031Z,92.57
2022-10-17T01:26:22.981Z,92.71
2022-10-17T01:27:22.954Z,92.77
2022-10-17T01:28:23.061Z,92.77
2022-10-17T01:29:23.903Z,92.91
2022-10-17T01:30:22.913Z,92.91
2022-10-17T01:31:22.928Z,93.02
2022-10-17T01:32:22.961Z,93.22
2022-10-17T01:33:22.851Z,93.22
2022-10-17T01:34:22.838Z,93.52
2022-10-17T01:35:22.870Z,93.63
2022-10-17T01:36:22.835Z,93.83
2022-10-17T01:37:22.842Z,93.83
2022-10-17T01:38:22.781Z,93.93
2022-10-17T01:39:22.924Z,93.93
2022-10-17T01:40:22.749Z,94.13
2022-10-17T01:41:22.762Z,94.34
2022-10-17T01:42:22.748Z,94.34
2022-10-17T01:43:22.763Z,94.44
2022-10-17T01:44:22.767Z,94.64
2022-10-17T01:45:22.721Z,94.64
2022-10-17T01:46:22.739Z,94.85
2022-10-17T01:47:22.786Z,94.95
2022-10-17T01:48:22.668Z,95.15
2022-10-17T01:49:22.662Z,95.36
2022-10-17T01:51:39.254Z,95.46
2022-10-17T01:52:39.231Z,95.56
2022-10-17T01:53:39.214Z,95.66
2022-10-17T01:54:39.203Z,95.66
2022-10-17T01:55:39.194Z,95.76
2022-10-17T01:56:39.178Z,95.86
2022-10-17T01:57:39.183Z,95.86
2022-10-17T01:58:39.163Z,95.97
2022-10-17T01:59:39.160Z,95.97
2022-10-17T02:00:39.122Z,96.07
2022-10-17T02:01:39.179Z,96.22
2022-10-17T02:02:39.102Z,96.22
2022-10-17T02:03:39.100Z,96.11
2022-10-17T02:04:39.071Z,96.11
2022-10-17T02:05:39.062Z,96.22
2022-10-17T02:06:39.053Z,96.31
2022-10-17T02:07:39.039Z,96.31
2022-10-17T02:08:39.029Z,96.52
2022-10-17T02:09:39.022Z,96.62
2022-10-17T02:10:38.997Z,96.72
2022-10-17T02:11:38.987Z,96.83
2022-10-17T02:12:38.990Z,96.92
2022-10-17T02:13:38.975Z,97.13
2022-10-17T02:14:38.999Z,97.13
2022-10-17T02:15:38.946Z,97.13
2022-10-17T02:16:38.983Z,97.23
2022-10-17T02:17:38.918Z,97.44
2022-10-17T02:18:38.890Z,97.64
2022-10-17T02:19:39.003Z,97.64
2022-10-17T02:20:38.868Z,97.64
2022-10-17T02:21:38.858Z,97.74
2022-10-17T02:22:38.851Z,97.74
2022-10-17T02:23:38.848Z,97.74
2022-10-17T02:24:38.859Z,97.84
2022-10-17T02:25:38.817Z,97.94
2022-10-17T02:26:38.806Z,98.05
2022-10-17T02:27:38.792Z,98.05
2022-10-17T02:28:38.805Z,98.05
2022-10-17T02:29:38.747Z,98.14
2022-10-17T02:30:38.743Z,98.05
2022-10-17T02:31:38.738Z,98.05
2022-10-17T02:32:38.717Z,98.05
2022-10-17T02:33:38.712Z,98.05
2022-10-17T02:34:38.689Z,98.05
2022-10-17T02:35:38.688Z,98.14
2022-10-17T02:36:38.697Z,98.25
2022-10-17T02:37:38.656Z,98.14
2022-10-17T02:38:38.648Z,98.05
2022-10-17T02:39:38.645Z,97.94
2022-10-17T02:40:38.614Z,98.05
2022-10-17T02:41:38.625Z,98.14
2022-10-17T02:42:38.585Z,98.05
2022-10-17T02:43:38.577Z,98.14
2022-10-17T02:44:38.561Z,98.25
2022-10-17T02:45:38.563Z,98.25
2022-10-17T02:46:38.550Z,98.35
2022-10-17T02:47:38.534Z,98.35
2022-10-17T02:48:38.506Z,98.45
2022-10-17T02:49:38.504Z,98.45
2022-10-17T02:50:38.494Z,98.45
2022-10-17T02:51:38.473Z,98.45
2022-10-17T02:52:38.499Z,98.55
2022-10-17T02:53:38.455Z,98.55
2022-10-17T02:54:38.463Z,98.66
2022-10-17T02:55:38.464Z,98.66
2022-10-17T02:56:38.460Z,98.66
2022-10-17T02:57:38.483Z,98.75
2022-10-17T02:58:38.401Z,98.66
2022-10-17T02:59:38.408Z,98.75
2022-10-17T03:00:38.361Z,98.86
2022-10-17T03:01:38.571Z,98.86
2022-10-17T03:02:38.345Z,99.06
2022-10-17T03:03:38.338Z,99.27
2022-10-17T03:04:38.321Z,99.27
2022-10-17T03:05:38.317Z,99.47
2022-10-17T03:06:38.329Z,99.57
2022-10-17T03:07:38.461Z,99.57
2022-10-17T03:09:38.252Z,99.88
2022-10-17T03:10:38.232Z,99.88
2022-10-17T03:11:38.222Z,99.88
2022-10-17T03:12:38.222Z,99.77
2022-10-17T03:13:39.855Z,99.77
2022-10-17T03:14:38.189Z,99.88
2022-10-17T03:15:38.185Z,99.88
2022-10-17T03:16:38.159Z,99.88
2022-10-17T03:17:38.207Z,99.77
2022-10-17T03:18:38.128Z,99.98
2022-10-17T03:19:38.138Z,99.98
2022-10-17T03:20:38.109Z,99.99
2022-10-17T03:21:38.090Z,99.99
2022-10-17T03:22:38.091Z,99.99
2022-10-17T03:23:38.070Z,99.99
2022-10-17T03:24:38.049Z,99.99
2022-10-17T03:25:38.040Z,99.99
2022-10-17T03:26:38.069Z,99.99
2022-10-17T03:27:38.018Z,99.99
2022-10-17T03:28:38.060Z,99.93
2022-10-17T03:29:37.997Z,99.99
2022-10-17T03:30:37.978Z,99.99
2022-10-17T03:31:37.964Z,99.99
2022-10-17T03:32:37.944Z,99.99
2022-10-17T03:33:37.927Z,99.99
2022-10-17T03:34:37.922Z,99.99
2022-10-17T03:35:37.961Z,99.99
2022-10-17T03:36:37.928Z,99.99
2022-10-17T03:37:37.897Z,99.99
2022-10-17T03:38:37.875Z,99.99
2022-10-17T03:39:37.866Z,99.99
2022-10-17T03:40:37.860Z,99.99
2022-10-17T03:41:37.845Z,99.99
2022-10-17T03:42:37.828Z,99.99
2022-10-17T03:43:37.814Z,99.99
2022-10-17T03:44:37.808Z,99.99
2022-10-17T03:45:37.804Z,99.99
2022-10-17T03:46:37.785Z,99.99
2022-10-17T03:47:37.766Z,99.99
2022-10-17T03:48:37.753Z,99.99
2022-10-17T03:49:37.764Z,99.99
2022-10-17T03:50:37.735Z,99.99
2022-10-17T03:51:37.700Z,99.99
2022-10-17T03:52:37.699Z,99.99
2022-10-17T03:53:37.684Z,99.99
2022-10-17T03:54:37.670Z,99.99
2022-10-17T03:55:37.655Z,99.99
2022-10-17T03:56:37.655Z,99.99
2022-10-17T03:57:39.268Z,99.99
2022-10-17T03:58:37.622Z,99.99
2022-10-17T03:59:37.615Z,99.99
2022-10-17T04:00:37.604Z,99.99
2022-10-17T04:01:37.641Z,99.99
2022-10-17T04:02:37.579Z,99.99
2022-10-17T04:03:37.551Z,99.99
2022-10-17T04:04:37.569Z,99.99
2022-10-17T04:05:37.530Z,99.99
2022-10-17T04:06:37.523Z,99.99
2022-10-17T04:07:37.515Z,99.99
2022-10-17T04:08:37.501Z,99.99
2022-10-17T04:09:37.482Z,99.99
2022-10-17T04:10:37.472Z,99.99
2022-10-17T04:11:37.449Z,99.99
2022-10-17T04:12:37.451Z,99.99
2022-10-17T04:13:37.431Z,99.99
2022-10-17T04:14:37.429Z,99.99
2022-10-17T04:15:37.401Z,99.99
2022-10-17T04:16:37.419Z,99.99
2022-10-17T04:17:38.256Z,99.99
2022-10-17T04:18:37.379Z,99.99
2022-10-17T04:19:37.340Z,99.99
2022-10-17T04:20:37.330Z,99.99
2022-10-17T04:21:37.322Z,99.99
2022-10-17T04:22:37.307Z,99.99
2022-10-17T04:23:37.315Z,99.99
2022-10-17T04:24:37.291Z,99.99
2022-10-17T04:25:37.279Z,99.99
2022-10-17T04:26:37.290Z,99.99
2022-10-17T04:27:37.254Z,99.99
2022-10-17T04:29:37.233Z,99.99
2022-10-17T04:30:38.005Z,99.99
2022-10-17T04:31:37.209Z,99.99
2022-10-17T04:32:37.198Z,99.99
2022-10-17T04:33:37.172Z,99.99
2022-10-17T04:34:37.156Z,99.99
2022-10-17T04:35:37.159Z,99.99
2022-10-17T04:36:37.138Z,99.99
2022-10-17T04:37:37.126Z,99.99
2022-10-17T04:38:37.131Z,99.99
2022-10-17T04:39:37.087Z,99.99
2022-10-17T04:40:37.087Z,99.99
2022-10-17T04:41:37.063Z,99.99
2022-10-17T04:42:37.056Z,99.99
2022-10-17T04:43:37.063Z,99.99
2022-10-17T04:44:37.046Z,99.99
2022-10-17T04:45:37.035Z,99.99
2022-10-17T04:46:37.036Z,99.99
2022-10-17T04:47:37.004Z,99.99
2022-10-17T04:48:36.996Z,99.99
2022-10-17T04:49:37.017Z,99.99
2022-10-17T04:50:36.964Z,99.99
2022-10-17T04:51:36.940Z,99.99
2022-10-17T04:52:36.932Z,99.99
2022-10-17T04:53:36.924Z,99.99
2022-10-17T04:54:36.904Z,99.99
2022-10-17T04:55:36.894Z,99.99
2022-10-17T04:56:36.876Z,99.99
2022-10-17T04:57:36.876Z,99.99
2022-10-17T04:58:36.854Z,99.99
2022-10-17T04:59:36.844Z,99.99
2022-10-17T05:00:36.860Z,99.99
2022-10-17T05:01:36.834Z,99.99
2022-10-17T05:02:36.795Z,99.99
2022-10-17T05:03:36.785Z,99.99
2022-10-17T05:04:36.773Z,99.99
2022-10-17T05:05:36.781Z,99.99
2022-10-17T05:06:36.780Z,99.99
2022-10-17T05:07:36.737Z,99.99
2022-10-17T05:08:36.742Z,99.99
2022-10-17T05:09:36.708Z,99.99
2022-10-17T05:10:36.702Z,99.99
2022-10-17T05:11:36.682Z,99.99
2022-10-17T05:12:36.670Z,99.99
2022-10-17T05:13:36.669Z,99.99
2022-10-17T05:14:36.650Z,99.99
2022-10-17T05:15:36.653Z,99.99
2022-10-17T05:16:36.633Z,99.99
2022-10-17T05:17:36.598Z,99.99
2022-10-17T05:18:36.611Z,99.99
2022-10-17T05:19:36.580Z,99.99
2022-10-17T05:20:36.574Z,99.99
2022-10-17T05:21:36.583Z,99.99
2022-10-17T05:22:39.668Z,99.99
2022-10-17T05:23:37.550Z,99.99
2022-10-17T05:24:36.519Z,99.99
2022-10-17T05:25:36.513Z,99.99
2022-10-17T05:26:36.509Z,99.99
2022-10-17T05:27:36.480Z,99.99
2022-10-17T05:28:36.534Z,99.99
2022-10-17T05:29:36.471Z,99.99
2022-10-17T05:30:37.529Z,99.99
2022-10-17T05:31:36.421Z,99.99
2022-10-17T05:32:36.449Z,99.99
2022-10-17T05:33:36.419Z,99.99
2022-10-17T05:34:36.398Z,99.99
2022-10-17T05:35:36.377Z,99.99
2022-10-17T05:36:36.377Z,99.99
2022-10-17T05:37:36.364Z,99.99
2022-10-17T05:38:36.389Z,99.99
2022-10-17T05:39:36.347Z,99.99
2022-10-17T05:40:36.308Z,99.99
2022-10-17T05:41:36.298Z,99.99
2022-10-17T05:42:36.339Z,99.99
2022-10-17T05:43:36.287Z,99.99
2022-10-17T05:44:36.268Z,99.99
2022-10-17T05:45:36.245Z,99.99
2022-10-17T05:46:36.238Z,99.99
2022-10-17T05:47:36.239Z,99.99
2022-10-17T05:48:36.228Z,99.99
2022-10-17T05:49:52.643Z,99.99
2022-10-17T05:50:37.331Z,99.99
2022-10-17T05:51:36.204Z,99.99
2022-10-17T05:52:36.167Z,99.99
2022-10-17T05:53:36.160Z,99.99
2022-10-17T05:54:36.125Z,99.99
2022-10-17T05:55:36.126Z,99.99
2022-10-17T05:56:36.115Z,99.99
2022-10-17T05:57:36.109Z,99.99
2022-10-17T05:58:49.906Z,99.99
2022-10-17T05:59:37.074Z,99.99
2022-10-17T06:00:36.119Z,99.99
2022-10-17T06:01:36.070Z,99.99
2022-10-17T06:02:36.070Z,99.99
2022-10-17T06:03:36.064Z,99.99
2022-10-17T06:04:36.135Z,99.99
2022-10-17T06:05:35.983Z,99.99
2022-10-17T06:06:35.993Z,99.99
2022-10-17T06:07:35.974Z,99.99
2022-10-17T06:08:35.972Z,99.99
2022-10-17T06:09:36.169Z,99.99
2022-10-17T06:10:35.939Z,99.99
2022-10-17T06:11:35.922Z,99.99
2022-10-17T06:12:35.930Z,99.99
2022-10-17T06:13:35.912Z,99.99
2022-10-17T06:14:35.934Z,99.99
2022-10-17T06:15:35.913Z,99.99
2022-10-17T06:16:35.874Z,99.99
2022-10-17T06:17:35.853Z,99.99
2022-10-17T06:18:35.911Z,99.99
2022-10-17T06:19:35.815Z,99.99
2022-10-17T06:20:35.809Z,99.99
2022-10-17T06:21:35.805Z,99.99
2022-10-17T06:22:35.792Z,99.99
2022-10-17T06:23:35.804Z,99.99
2022-10-17T06:24:35.758Z,99.99
2022-10-17T06:25:35.793Z,99.99
2022-10-17T06:26:35.788Z,99.99
2022-10-17T06:27:35.829Z,99.99
2022-10-17T06:28:35.761Z,99.99
2022-10-17T06:29:35.814Z,99.99
2022-10-17T06:30:35.678Z,99.99
2022-10-17T06:31:35.655Z,99.99
2022-10-17T06:32:35.651Z,99.99
2022-10-17T06:33:35.669Z,99.99
2022-10-17T06:34:35.629Z,99.99
2022-10-17T06:35:35.615Z,99.99
2022-10-17T06:36:35.620Z,99.99
2022-10-17T06:37:36.954Z,99.99
2022-10-17T06:38:35.603Z,99.99
2022-10-17T06:39:35.557Z,99.99
2022-10-17T06:40:35.537Z,99.99
2022-10-17T06:41:35.534Z,99.99
2022-10-17T06:42:35.520Z,99.99
2022-10-17T06:43:35.507Z,99.99
2022-10-17T06:44:35.508Z,99.99
2022-10-17T06:45:35.486Z,99.99
2022-10-17T06:46:35.468Z,99.99
2022-10-17T06:47:35.503Z,99.99
2022-10-17T06:48:36.415Z,99.99
2022-10-17T06:49:35.428Z,99.99
2022-10-17T06:50:35.572Z,99.99
2022-10-17T06:51:35.406Z,99.99
2022-10-17T06:52:35.390Z,99.99
2022-10-17T06:53:35.388Z,99.99
2022-10-17T06:54:35.399Z,99.99
2022-10-17T06:55:35.369Z,99.99
2022-10-17T06:56:35.337Z,99.99
2022-10-17T06:57:35.336Z,99.99
2022-10-17T06:58:35.355Z,99.99
2022-10-17T06:59:35.316Z,99.99
2022-10-17T07:00:35.453Z,99.99
2022-10-17T07:01:35.277Z,99.95
2022-10-17T07:02:35.266Z,99.85
2022-10-17T07:03:35.238Z,99.74
2022-10-17T07:04:35.236Z,99.74
2022-10-17T07:05:35.209Z,99.54
2022-10-17T07:06:35.233Z,99.33
2022-10-17T07:07:36.843Z,99.24
2022-10-17T07:08:35.185Z,99.24
2022-10-17T07:09:35.174Z,99.13
2022-10-17T07:10:35.159Z,99.13
2022-10-17T07:11:35.480Z,98.93
2022-10-17T07:12:35.156Z,98.79
2022-10-17T07:13:38.955Z,98.88
2022-10-17T07:14:35.714Z,98.88
2022-10-17T07:15:35.098Z,98.79
2022-10-17T07:16:35.084Z,98.48
2022-10-17T07:17:35.399Z,98.58
2022-10-17T07:18:35.107Z,98.48
2022-10-17T07:19:35.056Z,98.18
2022-10-17T07:20:35.057Z,98.18
2022-10-17T07:21:38.205Z,97.97
2022-10-17T07:22:35.004Z,98.07
2022-10-17T07:23:34.993Z,98.03
2022-10-17T07:24:35.004Z,98.03
2022-10-17T07:25:37.771Z,97.83
2022-10-17T07:26:35.970Z,97.92
2022-10-17T07:27:34.933Z,97.92
2022-10-17T07:28:35.011Z,97.72
2022-10-17T07:29:34.913Z,97.62
2022-10-17T07:30:34.940Z,97.52
2022-10-17T07:31:34.885Z,97.42
2022-10-17T07:32:34.872Z,97.42
2022-10-17T07:33:34.976Z,97.27
2022-10-17T07:34:34.852Z,97.27
2022-10-17T07:35:34.840Z,97.27
2022-10-17T07:36:35.701Z,97.27
2022-10-17T07:37:34.824Z,96.87
2022-10-17T07:38:34.832Z,96.66
2022-10-17T07:39:34.803Z,96.66
2022-10-17T07:40:34.785Z,96.46
2022-10-17T07:41:34.751Z,96.15
2022-10-17T07:42:34.926Z,95.61
2022-10-17T07:43:34.898Z,95.20
2022-10-17T07:44:34.741Z,94.55
2022-10-17T07:45:34.725Z,94.24
2022-10-17T07:46:34.704Z,94.04
2022-10-17T07:47:34.720Z,93.94
2022-10-17T07:48:34.681Z,93.74
2022-10-17T07:49:34.698Z,93.63
2022-10-17T07:50:34.648Z,93.63
2022-10-17T07:51:41.785Z,93.29
2022-10-17T07:52:34.664Z,93.29
2022-10-17T07:53:34.871Z,93.19
2022-10-17T07:54:34.629Z,92.99
2022-10-17T07:55:34.589Z,92.99
2022-10-17T07:56:34.631Z,92.88
2022-10-17T07:57:34.573Z,92.58
2022-10-17T07:58:34.632Z,92.33
2022-10-17T07:59:34.559Z,92.13
2022-10-17T08:00:34.609Z,91.93
2022-10-17T08:01:34.543Z,92.03
2022-10-17T08:02:34.626Z,91.73
2022-10-17T08:03:34.543Z,91.63
2022-10-17T08:04:34.504Z,91.63
2022-10-17T08:05:34.484Z,91.42
2022-10-17T08:06:34.500Z,91.18
2022-10-17T08:07:34.430Z,91.08
2022-10-17T08:08:34.426Z,90.88
2022-10-17T08:09:34.398Z,90.67
2022-10-17T08:10:34.432Z,90.67
2022-10-17T08:11:34.418Z,90.53
2022-10-17T08:12:34.406Z,90.53
2022-10-17T08:13:34.473Z,90.23
2022-10-17T08:14:34.350Z,90.23
2022-10-17T08:15:34.360Z,90.03
2022-10-17T08:16:34.350Z,89.83
2022-10-17T08:17:34.335Z,89.62
2022-10-17T08:18:34.380Z,89.48
2022-10-17T08:19:34.297Z,89.07
2022-10-17T08:20:34.327Z,88.87
2022-10-17T08:21:34.277Z,88.87
2022-10-17T08:22:34.250Z,88.63
2022-10-17T08:23:34.238Z,88.63
2022-10-17T08:24:34.233Z,88.53
2022-10-17T08:25:34.297Z,88.43
2022-10-17T08:26:35.046Z,88.32
2022-10-17T08:27:34.197Z,88.53
2022-10-17T08:28:34.287Z,88.53
2022-10-17T08:29:34.464Z,88.63
2022-10-17T08:30:34.258Z,88.53
2022-10-17T08:31:34.212Z,88.43
2022-10-17T08:32:34.175Z,88.32
2022-10-17T08:33:34.173Z,88.12
2022-10-17T08:34:34.129Z,87.82
2022-10-17T08:35:34.148Z,87.68
2022-10-17T08:36:34.072Z,87.48
2022-10-17T08:37:34.329Z,87.27
2022-10-17T08:38:35.654Z,87.18
2022-10-17T08:39:34.100Z,86.93
2022-10-17T08:40:34.056Z,86.83
2022-10-17T08:41:34.012Z,86.63
2022-10-17T08:42:33.994Z,86.63
2022-10-17T08:43:35.617Z,86.33
2022-10-17T08:44:33.989Z,86.13
2022-10-17T08:45:34.098Z,86.02
2022-10-17T08:46:33.997Z,86.02
2022-10-17T08:47:33.922Z,85.78
2022-10-17T08:48:33.949Z,85.68
2022-10-17T08:49:33.939Z,85.28
2022-10-17T08:50:33.897Z,85.28
2022-10-17T08:51:34.113Z,85.17
2022-10-17T08:52:33.859Z,84.88
2022-10-17T08:53:33.895Z,84.63
2022-10-17T08:54:33.851Z,84.43
2022-10-17T08:55:33.902Z,84.33
2022-10-17T08:56:48.020Z,84.53
2022-10-17T08:57:35.566Z,84.33
2022-10-17T08:58:33.769Z,84.23
2022-10-17T08:59:33.795Z,84.13
2022-10-17T09:00:33.848Z,84.09
2022-10-17T09:01:33.856Z,83.79
2022-10-17T09:02:33.803Z,83.79
2022-10-17T09:03:33.738Z,83.59
2022-10-17T09:04:33.744Z,83.48
2022-10-17T09:05:33.724Z,83.28
2022-10-17T09:06:33.754Z,82.74
2022-10-17T09:07:33.669Z,82.34
2022-10-17T09:08:33.646Z,82.10
2022-10-17T09:09:33.730Z,82.10
2022-10-17T09:10:33.636Z,82.20
2022-10-17T09:11:33.613Z,81.90
2022-10-17T09:12:33.587Z,81.99
2022-10-17T09:13:33.667Z,81.59
2022-10-17T09:14:33.735Z,81.59
2022-10-17T09:15:33.572Z,81.39
2022-10-17T09:16:33.616Z,80.89
2022-10-17T09:17:33.622Z,80.65
2022-10-17T09:18:33.673Z,80.45
2022-10-17T09:19:33.515Z,80.35
2022-10-17T09:20:33.639Z,80.35
2022-10-17T09:21:33.526Z,80.25
2022-10-17T09:22:33.490Z,80.45
2022-10-17T09:23:33.479Z,80.45
2022-10-17T09:24:33.452Z,80.41
2022-10-17T09:25:33.463Z,80.51
2022-10-17T09:26:33.459Z,80.41
2022-10-17T09:27:33.397Z,80.41
2022-10-17T09:28:33.549Z,80.31
2022-10-17T09:29:37.903Z,80.21
2022-10-17T09:30:44.834Z,80.11
2022-10-17T09:31:34.396Z,80.01
2022-10-17T09:32:33.479Z,79.81
2022-10-17T09:33:35.389Z,79.91
2022-10-17T09:34:34.326Z,80.01
2022-10-17T09:35:33.337Z,80.01
2022-10-17T09:36:33.431Z,80.01
2022-10-17T09:37:33.416Z,79.91
2022-10-17T09:38:33.257Z,79.77
2022-10-17T09:39:33.321Z,79.27
2022-10-17T09:40:33.244Z,78.86
2022-10-17T09:41:44.710Z,78.77
2022-10-17T09:42:34.223Z,78.66
2022-10-17T09:43:34.308Z,78.86
2022-10-17T09:44:33.347Z,78.56
2022-10-17T09:45:33.185Z,78.73
2022-10-17T09:46:33.225Z,78.73
2022-10-17T09:47:33.164Z,78.73
2022-10-17T09:48:33.142Z,78.42
2022-10-17T09:49:33.127Z,78.42
2022-10-17T09:50:33.147Z,78.22
2022-10-17T09:51:33.086Z,77.89
2022-10-17T09:52:33.085Z,77.69
2022-10-17T09:53:33.105Z,77.79
2022-10-17T09:54:33.111Z,77.48
2022-10-17T09:55:33.072Z,77.39
2022-10-17T09:56:33.086Z,77.09
2022-10-17T09:57:33.158Z,76.95
2022-10-17T09:58:33.053Z,76.85
2022-10-17T09:59:33.091Z,76.34
2022-10-17T10:00:33.150Z,76.34
2022-10-17T10:01:33.043Z,76.04
2022-10-17T10:02:33.404Z,75.51
2022-10-17T10:03:32.954Z,75.60
2022-10-17T10:04:46.783Z,75.60
2022-10-17T10:05:33.914Z,75.31
2022-10-17T10:06:32.916Z,75.17
2022-10-17T10:07:32.964Z,74.87
2022-10-17T10:08:32.895Z,74.67
2022-10-17T10:09:34.859Z,74.47
2022-10-17T10:10:32.885Z,74.37
2022-10-17T10:11:32.893Z,74.27
2022-10-17T10:12:33.260Z,73.73
2022-10-17T10:13:32.844Z,73.43
2022-10-17T10:14:32.872Z,73.23
2022-10-17T10:15:32.843Z,72.69
2022-10-17T10:16:33.588Z,72.39
2022-10-17T10:17:32.849Z,72.39
2022-10-17T10:18:33.798Z,72.30
2022-10-17T10:19:32.792Z,72.06
2022-10-17T10:20:32.791Z,72.26
2022-10-17T10:21:33.426Z,72.39
2022-10-17T10:22:33.065Z,72.50
2022-10-17T10:23:32.755Z,72.30
2022-10-17T10:24:32.690Z,72.06
2022-10-17T10:25:32.666Z,71.96
2022-10-17T10:26:32.696Z,71.86
2022-10-17T10:28:32.711Z,72.16
2022-10-17T10:29:32.646Z,72.16
2022-10-17T10:30:36.142Z,72.16
2022-10-17T10:31:33.575Z,72.13
2022-10-17T10:32:32.779Z,72.26
2022-10-17T10:33:32.561Z,72.16
2022-10-17T10:34:32.580Z,72.03
2022-10-17T10:35:32.533Z,71.53
2022-10-17T10:36:32.597Z,71.12
2022-10-17T10:37:32.986Z,70.73
2022-10-17T10:38:32.544Z,70.23
2022-10-17T10:39:32.581Z,70.09
2022-10-17T10:40:32.695Z,69.69
2022-10-17T10:41:32.479Z,69.49
2022-10-17T10:42:32.440Z,69.19
2022-10-17T10:43:33.264Z,68.96
2022-10-17T10:44:32.465Z,68.66
2022-10-17T10:45:48.913Z,68.76
2022-10-17T10:46:33.486Z,68.66
2022-10-17T10:47:32.882Z,68.76
2022-10-17T10:48:32.435Z,68.86
2022-10-17T10:49:32.384Z,68.86
2022-10-17T10:50:32.366Z,68.86
2022-10-17T10:51:32.389Z,68.96
2022-10-17T10:52:32.637Z,68.66
2022-10-17T10:53:35.221Z,69.06
2022-10-17T10:54:32.353Z,68.96
2022-10-17T10:55:32.301Z,68.36
2022-10-17T10:56:32.314Z,67.83
2022-10-17T10:57:32.634Z,67.43
2022-10-17T10:58:32.261Z,66.83
2022-10-17T10:59:32.268Z,66.83
2022-10-17T11:00:32.265Z,66.50
2022-10-17T11:01:32.262Z,66.20
2022-10-17T11:02:32.284Z,66.20
2022-10-17T11:03:32.226Z,66.30
2022-10-17T11:04:32.211Z,66.30
2022-10-17T11:05:32.154Z,65.90
2022-10-17T11:06:32.137Z,66.20
2022-10-17T11:07:32.509Z,66.39
2022-10-17T11:08:32.104Z,66.20
2022-10-17T11:09:33.773Z,65.30
2022-10-17T11:10:32.150Z,65.30
2022-10-17T11:11:32.101Z,64.87
2022-10-17T11:12:32.146Z,65.07
2022-10-17T11:13:32.081Z,65.37
2022-10-17T11:14:32.059Z,65.67
2022-10-17T11:15:32.083Z,65.77
2022-10-17T11:16:32.023Z,66.00
2022-10-17T11:17:32.477Z,66.09
2022-10-17T11:18:32.051Z,66.20
2022-10-17T11:19:31.988Z,66.20
2022-10-17T11:20:32.051Z,66.39
2022-10-17T11:21:31.996Z,66.70
2022-10-17T11:22:32.421Z,66.80
2022-10-17T11:23:31.912Z,66.70
2022-10-17T11:24:31.914Z,66.66
2022-10-17T11:25:31.924Z,66.86
2022-10-17T11:26:31.920Z,66.96
2022-10-17T11:27:31.875Z,66.96
2022-10-17T11:28:31.985Z,66.96
2022-10-17T11:29:31.931Z,67.07
2022-10-17T11:30:31.953Z,66.86
2022-10-17T11:31:31.822Z,66.36
2022-10-17T11:32:32.126Z,66.47
2022-10-17T11:33:32.227Z,66.56
2022-10-17T11:34:31.822Z,66.56
2022-10-17T11:35:31.789Z,66.17
2022-10-17T11:36:31.760Z,65.77
2022-10-17T11:37:31.816Z,65.97
2022-10-17T11:38:31.742Z,65.97
2022-10-17T11:39:31.794Z,65.97
2022-10-17T11:40:31.706Z,65.87
2022-10-17T11:41:31.749Z,65.77
2022-10-17T11:42:32.413Z,65.97
2022-10-17T11:43:31.687Z,65.77
2022-10-17T11:44:31.680Z,65.56
2022-10-17T11:45:31.725Z,65.56
2022-10-17T11:46:31.620Z,65.37
2022-10-17T11:47:31.647Z,65.37
2022-10-17T11:48:31.598Z,65.04
2022-10-17T11:49:33.982Z,65.04
2022-10-17T11:52:51.886Z,64.64
2022-10-17T11:53:32.816Z,64.84
2022-10-17T11:54:31.518Z,65.14
2022-10-17T11:55:31.536Z,65.04
2022-10-17T11:56:31.489Z,65.34
2022-10-17T11:57:31.501Z,65.34
2022-10-17T11:58:31.898Z,65.53
2022-10-17T11:59:32.641Z,65.44
2022-10-17T12:00:32.439Z,65.23
2022-10-17T12:01:31.487Z,64.90
2022-10-17T12:02:32.069Z,64.90
2022-10-17T12:03:31.430Z,64.51
2022-10-17T12:04:31.461Z,64.81
2022-10-17T12:05:31.405Z,63.38
2022-10-17T12:06:31.433Z,63.38
2022-10-17T12:07:31.717Z,63.18
2022-10-17T12:08:31.467Z,63.38
2022-10-17T12:09:31.424Z,63.11
2022-10-17T12:10:31.393Z,63.01
2022-10-17T12:11:31.287Z,62.88
2022-10-17T12:12:31.964Z,62.78
2022-10-17T12:13:31.303Z,62.88
2022-10-17T12:14:31.745Z,62.78
2022-10-17T12:15:31.244Z,62.68
2022-10-17T12:16:31.300Z,62.59
2022-10-17T12:17:31.689Z,62.59
2022-10-17T12:18:31.241Z,62.48
2022-10-17T12:19:31.311Z,62.68
2022-10-17T12:20:31.219Z,62.68
2022-10-17T12:21:32.264Z,62.98
2022-10-17T12:22:31.180Z,62.68
2022-10-17T12:23:31.191Z,62.98
2022-10-17T12:24:31.142Z,62.88
2022-10-17T12:25:31.635Z,62.68
2022-10-17T12:26:31.106Z,62.45
2022-10-17T12:27:31.578Z,62.35
2022-10-17T12:28:31.128Z,62.45
2022-10-17T12:29:31.095Z,62.45
2022-10-17T12:30:31.059Z,62.75
2022-10-17T12:31:34.032Z,63.05
2022-10-17T12:32:46.846Z,63.35
2022-10-17T12:33:32.127Z,63.28
2022-10-17T12:34:31.259Z,63.28
2022-10-17T12:35:32.560Z,63.15
2022-10-17T12:36:31.041Z,62.95
2022-10-17T12:37:31.357Z,62.85
2022-10-17T12:38:31.020Z,63.05
2022-10-17T12:39:31.001Z,63.25
2022-10-17T12:40:30.942Z,63.35
2022-10-17T12:41:30.946Z,63.38
2022-10-17T12:42:31.286Z,63.38
2022-10-17T12:43:30.975Z,63.58
2022-10-17T12:44:33.120Z,63.68
2022-10-17T12:45:30.917Z,63.88
2022-10-17T12:46:30.917Z,63.68
2022-10-17T12:47:31.142Z,63.78
2022-10-17T12:48:30.949Z,63.58
2022-10-17T12:49:30.826Z,63.58
2022-10-17T12:50:34.798Z,63.18
2022-10-17T12:51:36.311Z,63.15
2022-10-17T12:52:31.803Z,62.95
2022-10-17T12:53:30.835Z,62.45
2022-10-17T12:54:37.907Z,62.23
2022-10-17T12:55:31.790Z,62.52
2022-10-17T12:56:30.737Z,62.65
2022-10-17T12:57:31.071Z,62.95
2022-10-17T12:58:30.732Z,62.95
2022-10-17T12:59:30.693Z,63.25
2022-10-17T13:00:30.837Z,63.18